createdAt,value
2018-07-09T00:00:50.030Z,98248.77
2018-07-09T00:03:17.571Z,98249.81
2018-07-09T00:05:46.474Z,98249.23
2018-07-09T00:08:14.699Z,98247.71
2018-07-09T00:11:02.134Z,98244.56
2018-07-09T00:13:30.141Z,98239.22
2018-07-09T00:15:57.956Z,98237.36
2018-07-09T00:18:25.570Z,98240.05
2018-07-09T00:20:53.232Z,98237.75
2018-07-09T00:23:20.771Z,98241.86
2018-07-09T00:25:49.259Z,98239.39
2018-07-09T00:28:17.894Z,98240.15
2018-07-09T00:30:45.490Z,98244.89
2018-07-09T00:33:13.122Z,98244.12
2018-07-09T00:35:40.701Z,98243.48
2018-07-09T00:38:08.238Z,98244.38
2018-07-09T00:40:35.794Z,98244.77
2018-07-09T00:43:03.436Z,98248.02
2018-07-09T00:45:31.079Z,98241.37
2018-07-09T00:47:58.674Z,98245.48
2018-07-09T00:50:26.326Z,98247.83
2018-07-09T00:52:53.871Z,98249.36
2018-07-09T00:55:21.532Z,98243.22
2018-07-09T00:57:49.759Z,98241.80
2018-07-09T01:00:17.323Z,98246.89
2018-07-09T01:02:44.965Z,98243.03
2018-07-09T01:05:12.502Z,98247.06
2018-07-09T01:07:40.100Z,98244.77
2018-07-09T01:10:07.703Z,98246.73
2018-07-09T01:12:35.273Z,98241.97
2018-07-09T01:15:02.835Z,98239.79
2018-07-09T01:17:30.393Z,98242.09
2018-07-09T01:19:57.990Z,98242.20
2018-07-09T01:22:25.566Z,98239.52
2018-07-09T01:24:53.178Z,98239.27
2018-07-09T01:27:20.726Z,98236.45
2018-07-09T01:29:48.337Z,98234.84
2018-07-09T01:32:15.931Z,98228.27
2018-07-09T01:34:43.476Z,98230.62
2018-07-09T01:37:11.024Z,98225.56
2018-07-09T01:39:38.585Z,98228.70
2018-07-09T01:42:06.147Z,98220.98
2018-07-09T01:44:33.668Z,98215.02
2018-07-09T01:47:01.219Z,98224.41
2018-07-09T01:49:28.750Z,98220.89
2018-07-09T01:51:56.325Z,98218.02
2018-07-09T01:54:23.950Z,98219.05
2018-07-09T01:56:51.503Z,98216.70
2018-07-09T01:59:19.047Z,98213.25
2018-07-09T02:01:46.619Z,98216.31
2018-07-09T02:04:14.142Z,98214.26
2018-07-09T02:06:41.682Z,98226.39
2018-07-09T02:09:09.347Z,98222.30
2018-07-09T02:11:37.486Z,98219.48
2018-07-09T02:14:05.034Z,98220.77
2018-07-09T02:16:32.666Z,98218.59
2018-07-09T02:19:00.218Z,98226.39
2018-07-09T02:21:27.750Z,98226.61
2018-07-09T02:23:55.506Z,98219.48
2018-07-09T02:26:23.118Z,98217.84
2018-07-09T02:28:50.653Z,98216.95
2018-07-09T02:31:18.226Z,98217.13
2018-07-09T02:33:45.775Z,98218.08
2018-07-09T02:36:13.350Z,98218.77
2018-07-09T02:38:40.918Z,98217.76
2018-07-09T02:41:08.455Z,98221.14
2018-07-09T02:43:36.010Z,98219.02
2018-07-09T02:46:03.603Z,98223.13
2018-07-09T02:48:31.162Z,98220.10
2018-07-09T02:50:58.686Z,98220.87
2018-07-09T02:53:26.270Z,98221.51
2018-07-09T02:55:53.826Z,98216.70
2018-07-09T02:58:21.355Z,98218.88
2018-07-09T03:00:48.997Z,98222.54
2018-07-09T03:03:16.482Z,98228.16
2018-07-09T03:05:44.039Z,98231.06
2018-07-09T03:08:11.625Z,98228.50
2018-07-09T03:10:39.178Z,98230.63
2018-07-09T03:13:06.742Z,98231.91
2018-07-09T03:15:34.299Z,98235.75
2018-07-09T03:18:01.906Z,98236.51
2018-07-09T03:20:29.454Z,98237.61
2018-07-09T03:22:57.058Z,98249.88
2018-07-09T03:25:24.614Z,98242.00
2018-07-09T03:27:52.153Z,98247.36
2018-07-09T03:30:19.742Z,98249.02
2018-07-09T03:32:47.291Z,98251.87
2018-07-09T03:35:14.842Z,98247.27
2018-07-09T03:37:42.419Z,98243.21
2018-07-09T03:40:09.992Z,98245.83
2018-07-09T03:42:37.574Z,98254.31
2018-07-09T03:45:05.159Z,98246.78
2018-07-09T03:47:32.686Z,98250.41
2018-07-09T03:50:00.238Z,98249.26
2018-07-09T03:52:27.846Z,98247.19
2018-07-09T03:54:55.455Z,98254.95
2018-07-09T03:57:23.019Z,98253.93
2018-07-09T03:59:50.619Z,98259.82
2018-07-09T04:02:18.170Z,98264.20
2018-07-09T04:04:45.751Z,98263.95
2018-07-09T04:07:13.336Z,98256.67
2018-07-09T04:09:40.871Z,98257.06
2018-07-09T04:12:08.435Z,98267.23
2018-07-09T04:14:36.065Z,98261.86
2018-07-09T04:17:03.595Z,98262.35
2018-07-09T04:19:31.126Z,98263.47
2018-07-09T04:21:58.746Z,98262.32
2018-07-09T04:24:26.282Z,98260.05
2018-07-09T04:26:54.199Z,98266.62
2018-07-09T04:29:21.799Z,98258.75
2018-07-09T04:31:49.406Z,98264.36
2018-07-09T04:34:16.947Z,98258.94
2018-07-09T04:36:44.502Z,98260.20
2018-07-09T04:39:12.048Z,98258.09
2018-07-09T04:41:39.598Z,98260.98
2018-07-09T04:44:07.182Z,98257.02
2018-07-09T04:46:34.736Z,98260.31
2018-07-09T04:49:02.279Z,98258.97
2018-07-09T04:51:29.894Z,98261.05
2018-07-09T04:53:57.635Z,98256.00
2018-07-09T04:56:25.812Z,98261.53
2018-07-09T04:58:53.462Z,98258.72
2018-07-09T05:01:20.998Z,98256.53
2018-07-09T05:03:48.550Z,98260.20
2018-07-09T05:06:16.154Z,98256.98
2018-07-09T05:08:43.694Z,98260.73
2018-07-09T05:11:11.251Z,98254.23
2018-07-09T05:13:38.819Z,98258.08
2018-07-09T05:16:06.705Z,98256.09
2018-07-09T05:18:34.238Z,98262.86
2018-07-09T05:21:01.802Z,98258.09
2018-07-09T05:23:29.376Z,98253.44
2018-07-09T05:25:56.934Z,98262.61
2018-07-09T05:28:24.496Z,98261.81
2018-07-09T05:30:52.033Z,98264.59
2018-07-09T05:33:19.616Z,98257.80
2018-07-09T05:35:47.247Z,98262.70
2018-07-09T05:38:14.810Z,98260.43
2018-07-09T05:40:42.473Z,98257.39
2018-07-09T05:43:10.170Z,98260.08
2018-07-09T05:45:37.778Z,98262.42
2018-07-09T05:48:05.655Z,98268.95
2018-07-09T05:50:33.271Z,98266.81
2018-07-09T05:53:00.831Z,98262.73
2018-07-09T05:55:28.384Z,98258.86
2018-07-09T05:57:55.966Z,98257.48
2018-07-09T06:00:23.582Z,98263.17
2018-07-09T06:02:51.137Z,98264.64
2018-07-09T06:05:19.862Z,98262.41
2018-07-09T06:07:47.442Z,98260.00
2018-07-09T06:10:15.052Z,98260.71
2018-07-09T06:12:42.635Z,98264.55
2018-07-09T06:15:10.170Z,98257.70
2018-07-09T06:17:37.733Z,98266.28
2018-07-09T06:20:06.152Z,98262.48
2018-07-09T06:22:33.713Z,98270.87
2018-07-09T06:25:01.272Z,98270.66
2018-07-09T06:27:28.867Z,98270.16
2018-07-09T06:29:56.478Z,98277.46
2018-07-09T06:32:24.049Z,98270.52
2018-07-09T06:34:51.630Z,98265.94
2018-07-09T06:37:19.202Z,98279.34
2018-07-09T06:39:46.764Z,98274.09
2018-07-09T06:42:14.322Z,98272.34
2018-07-09T06:44:41.922Z,98269.52
2018-07-09T06:47:09.701Z,98267.64
2018-07-09T06:49:37.299Z,98266.27
2018-07-09T06:52:04.967Z,98264.45
2018-07-09T06:54:32.494Z,98264.98
2018-07-09T06:57:00.167Z,98266.95
2018-07-09T06:59:27.730Z,98265.72
2018-07-09T07:01:55.280Z,98268.42
2018-07-09T07:04:22.868Z,98263.31
2018-07-09T07:06:50.451Z,98262.55
2018-07-09T07:09:17.989Z,98261.52
2018-07-09T07:11:45.569Z,98256.00
2018-07-09T07:14:13.113Z,98267.94
2018-07-09T07:16:40.710Z,98264.46
2018-07-09T07:19:08.274Z,98267.43
2018-07-09T07:21:35.826Z,98267.20
2018-07-09T07:24:03.365Z,98269.17
2018-07-09T07:26:30.974Z,98263.73
2018-07-09T07:28:58.586Z,98264.38
2018-07-09T07:31:26.183Z,98263.50
2018-07-09T07:33:53.807Z,98257.20
2018-07-09T07:36:21.345Z,98260.70
2018-07-09T07:38:48.901Z,98252.21
2018-07-09T07:41:16.470Z,98253.80
2018-07-09T07:43:44.038Z,98254.06
2018-07-09T07:46:11.663Z,98256.22
2018-07-09T07:48:39.363Z,98261.33
2018-07-09T07:51:06.917Z,98253.56
2018-07-09T07:53:34.466Z,98255.16
2018-07-09T07:56:02.081Z,98254.50
2018-07-09T07:58:29.663Z,98254.14
2018-07-09T08:00:57.218Z,98252.11
2018-07-09T08:03:24.815Z,98249.56
2018-07-09T08:05:52.395Z,98241.39
2018-07-09T08:08:19.980Z,98237.09
2018-07-09T08:10:47.582Z,98238.87
2018-07-09T08:13:27.979Z,98233.88
2018-07-09T08:15:42.698Z,98233.72
2018-07-09T08:18:10.386Z,98228.28
2018-07-09T08:20:37.987Z,98230.73
2018-07-09T08:23:05.750Z,98231.28
2018-07-09T08:25:33.404Z,98228.33
2018-07-09T08:28:00.910Z,98229.03
2018-07-09T08:30:28.531Z,98227.31
2018-07-09T08:32:56.126Z,98227.84
2018-07-09T08:35:23.665Z,98224.16
2018-07-09T08:37:51.205Z,98227.95
2018-07-09T08:40:18.815Z,98232.86
2018-07-09T08:42:46.362Z,98226.66
2018-07-09T08:45:13.984Z,98221.80
2018-07-09T08:47:41.554Z,98226.34
2018-07-09T08:50:09.126Z,98221.48
2018-07-09T08:52:36.655Z,98214.82
2018-07-09T08:55:04.294Z,98220.05
2018-07-09T08:57:31.879Z,98208.64
2018-07-09T09:00:06.330Z,98206.88
2018-07-09T09:02:33.879Z,98205.37
2018-07-09T09:05:01.426Z,98217.70
2018-07-09T09:07:28.982Z,98214.06
2018-07-09T09:09:56.596Z,98215.14
2018-07-09T09:12:24.130Z,98209.34
2018-07-09T09:14:51.727Z,98208.06
2018-07-09T09:17:19.298Z,98197.73
2018-07-09T09:19:46.841Z,98196.52
2018-07-09T09:22:14.401Z,98198.62
2018-07-09T09:24:41.959Z,98193.34
2018-07-09T09:27:09.588Z,98191.36
2018-07-09T09:29:37.177Z,98193.17
2018-07-09T09:32:04.713Z,98192.52
2018-07-09T09:34:32.298Z,98187.70
2018-07-09T09:36:59.926Z,98190.61
2018-07-09T09:39:27.453Z,98190.11
2018-07-09T09:41:55.028Z,98191.34
2018-07-09T09:44:23.398Z,98201.11
2018-07-09T09:46:50.914Z,98196.00
2018-07-09T09:49:18.526Z,98195.55
2018-07-09T09:51:46.097Z,98190.61
2018-07-09T09:54:13.621Z,98186.35
2018-07-09T09:56:41.253Z,98183.84
2018-07-09T09:59:08.822Z,98186.87
2018-07-09T10:01:36.337Z,98185.44
2018-07-09T10:04:03.917Z,98175.84
2018-07-09T10:06:31.510Z,98184.33
2018-07-09T10:08:59.050Z,98179.39
2018-07-09T10:11:26.602Z,98176.98
2018-07-09T10:13:54.183Z,98175.38
2018-07-09T10:16:21.781Z,98170.34
2018-07-09T10:18:49.342Z,98177.97
2018-07-09T10:21:16.918Z,98172.47
2018-07-09T10:23:44.470Z,98168.22
2018-07-09T10:26:12.012Z,98170.97
2018-07-09T10:28:39.614Z,98158.70
2018-07-09T10:31:07.224Z,98166.91
2018-07-09T10:33:34.794Z,98171.03
2018-07-09T10:36:02.452Z,98166.88
2018-07-09T10:38:30.007Z,98150.98
2018-07-09T10:40:57.590Z,98156.53
2018-07-09T10:43:25.162Z,98147.11
2018-07-09T10:45:52.683Z,98152.84
2018-07-09T10:48:20.227Z,98152.22
2018-07-09T10:50:47.826Z,98143.25
2018-07-09T10:53:15.390Z,98140.13
2018-07-09T10:55:42.974Z,98138.12
2018-07-09T10:58:10.543Z,98133.04
2018-07-09T11:00:38.162Z,98124.81
2018-07-09T11:03:05.959Z,98130.75
2018-07-09T11:05:33.539Z,98128.08
2018-07-09T11:08:01.134Z,98131.11
2018-07-09T11:10:28.698Z,98124.98
2018-07-09T11:12:56.309Z,98126.91
2018-07-09T11:15:23.865Z,98124.34
2018-07-09T11:17:51.423Z,98123.41
2018-07-09T11:20:19.070Z,98116.44
2018-07-09T11:22:46.658Z,98116.33
2018-07-09T11:25:14.178Z,98115.80
2018-07-09T11:27:41.835Z,98114.67
2018-07-09T11:30:09.454Z,98121.38
2018-07-09T11:32:37.041Z,98112.27
2018-07-09T11:35:04.628Z,98117.30
2018-07-09T11:37:32.178Z,98115.41
2018-07-09T11:39:59.962Z,98099.91
2018-07-09T11:42:27.747Z,98099.71
2018-07-09T11:44:55.362Z,98099.77
2018-07-09T11:47:22.906Z,98104.50
2018-07-09T11:49:50.484Z,98097.01
2018-07-09T11:52:18.031Z,98097.21
2018-07-09T11:54:45.554Z,98100.16
2018-07-09T11:57:13.155Z,98101.53
2018-07-09T11:59:40.705Z,98093.05
2018-07-09T12:02:08.246Z,98094.63
2018-07-09T12:04:35.830Z,98100.10
2018-07-09T12:07:03.409Z,98095.36
2018-07-09T12:09:31.265Z,98086.41
2018-07-09T12:11:58.865Z,98085.93
2018-07-09T12:14:26.413Z,98079.00
2018-07-09T12:16:53.983Z,98083.09
2018-07-09T12:19:21.579Z,98079.34
2018-07-09T12:21:49.123Z,98076.35
2018-07-09T12:24:16.658Z,98077.38
2018-07-09T12:26:44.271Z,98074.90
2018-07-09T12:29:12.005Z,98078.53
2018-07-09T12:31:39.429Z,98072.97
2018-07-09T12:34:07.188Z,98068.69
2018-07-09T12:36:34.752Z,98066.73
2018-07-09T12:39:02.397Z,98065.91
2018-07-09T12:41:29.980Z,98057.67
2018-07-09T12:43:57.533Z,98055.67
2018-07-09T12:46:25.114Z,98065.78
2018-07-09T12:48:52.716Z,98047.64
2018-07-09T12:51:20.281Z,98059.26
2018-07-09T12:53:47.823Z,98066.18
2018-07-09T12:56:15.385Z,98055.73
2018-07-09T12:58:42.942Z,98055.36
2018-07-09T13:01:10.529Z,98051.50
2018-07-09T13:03:38.118Z,98054.54
2018-07-09T13:06:05.694Z,98048.42
2018-07-09T13:08:33.269Z,98050.61
2018-07-09T13:11:00.842Z,98049.81
2018-07-09T13:13:28.397Z,98053.88
2018-07-09T13:15:55.962Z,98044.06
2018-07-09T13:18:23.563Z,98050.42
2018-07-09T13:20:51.149Z,98041.72
2018-07-09T13:23:19.330Z,98047.80
2018-07-09T13:25:46.920Z,98052.05
2018-07-09T13:28:14.478Z,98045.89
2018-07-09T13:30:42.058Z,98045.12
2018-07-09T13:33:09.685Z,98037.52
2018-07-09T13:35:37.346Z,98028.21
2018-07-09T13:38:05.007Z,98030.72
2018-07-09T13:40:33.057Z,98037.72
2018-07-09T13:43:00.678Z,98031.44
2018-07-09T13:45:28.302Z,98030.34
2018-07-09T13:47:55.950Z,98032.06
2018-07-09T13:50:23.583Z,98023.89
2018-07-09T13:52:51.193Z,98017.66
2018-07-09T13:55:18.762Z,98018.36
2018-07-09T13:57:46.425Z,98017.13
2018-07-09T14:00:14.026Z,98021.06
2018-07-09T14:02:41.569Z,98013.75
2018-07-09T14:05:09.120Z,98013.49
2018-07-09T14:07:36.667Z,98010.00
2018-07-09T14:10:04.315Z,98003.16
2018-07-09T14:12:31.856Z,98005.19
2018-07-09T14:14:59.371Z,98010.34
2018-07-09T14:17:27.287Z,98011.83
2018-07-09T14:20:14.903Z,97999.56
2018-07-09T14:22:42.518Z,98002.48
2018-07-09T14:25:10.078Z,98007.23
2018-07-09T14:27:38.078Z,98000.80
2018-07-09T14:30:05.720Z,97993.89
2018-07-09T14:32:33.298Z,97994.61
2018-07-09T14:35:00.829Z,97986.86
2018-07-09T14:37:28.646Z,97996.30
2018-07-09T14:39:56.191Z,97987.41
2018-07-09T14:42:23.738Z,97978.36
2018-07-09T14:44:51.423Z,97984.72
2018-07-09T14:47:19.346Z,97975.13
2018-07-09T14:49:46.869Z,97972.90
2018-07-09T14:52:14.426Z,97976.05
2018-07-09T14:54:46.133Z,97977.36
2018-07-09T14:57:13.759Z,97963.98
2018-07-09T14:59:41.288Z,97959.44
2018-07-09T15:02:09.119Z,97956.31
2018-07-09T15:04:36.714Z,97961.34
2018-07-09T15:07:04.623Z,97951.50
2018-07-09T15:09:32.207Z,97947.45
2018-07-09T15:11:59.814Z,97949.95
2018-07-09T15:14:27.349Z,97942.34
2018-07-09T15:16:54.950Z,97945.23
2018-07-09T15:19:22.963Z,97949.66
2018-07-09T15:21:50.813Z,97934.13
2018-07-09T15:24:18.363Z,97940.80
2018-07-09T15:26:45.947Z,97947.14
2018-07-09T15:29:13.539Z,97936.88
2018-07-09T15:31:52.486Z,97934.92
2018-07-09T15:34:20.561Z,97937.69
2018-07-09T15:36:48.100Z,97938.84
2018-07-09T15:39:15.729Z,97948.51
2018-07-09T15:41:43.262Z,97945.98
2018-07-09T15:44:10.806Z,97941.54
2018-07-09T15:46:38.369Z,97935.89
2018-07-09T15:49:05.927Z,97935.27
2018-07-09T15:51:33.441Z,97934.30
2018-07-09T15:54:01.075Z,97930.79
2018-07-09T15:56:28.887Z,97933.72
2018-07-09T15:58:56.965Z,97934.73
2018-07-09T16:01:24.564Z,97929.72
2018-07-09T16:03:52.145Z,97924.73
2018-07-09T16:06:20.055Z,97929.91
2018-07-09T16:08:47.607Z,97921.95
2018-07-09T16:11:15.282Z,97921.13
2018-07-09T16:13:42.832Z,97912.25
2018-07-09T16:16:10.401Z,97918.98
2018-07-09T16:18:38.169Z,97917.00
2018-07-09T16:21:06.206Z,97912.61
2018-07-09T16:23:33.827Z,97918.31
2018-07-09T16:26:01.415Z,97918.06
2018-07-09T16:28:28.980Z,97916.80
2018-07-09T16:30:56.606Z,97909.61
2018-07-09T16:33:24.179Z,97906.34
2018-07-09T16:35:51.781Z,97902.75
2018-07-09T16:38:19.567Z,97904.23
2018-07-09T16:40:47.130Z,97902.66
2018-07-09T16:43:14.686Z,97899.80
2018-07-09T16:45:42.240Z,97899.73
2018-07-09T16:48:09.782Z,97897.80
2018-07-09T16:50:37.359Z,97898.32
2018-07-09T16:53:04.987Z,97895.63
2018-07-09T16:55:32.575Z,97901.64
2018-07-09T16:58:00.131Z,97901.49
2018-07-09T17:00:27.715Z,97892.94
2018-07-09T17:02:55.278Z,97902.73
2018-07-09T17:05:22.819Z,97894.92
2018-07-09T17:07:50.451Z,97903.97
2018-07-09T17:10:17.982Z,97898.26
2018-07-09T17:12:45.555Z,97894.59
2018-07-09T17:15:13.123Z,97894.56
2018-07-09T17:17:40.694Z,97893.69
2018-07-09T17:20:08.272Z,97892.97
2018-07-09T17:22:35.886Z,97894.20
2018-07-09T17:25:03.475Z,97886.91
2018-07-09T17:27:31.020Z,97895.66
2018-07-09T17:29:58.589Z,97889.55
2018-07-09T17:32:26.206Z,97895.50
2018-07-09T17:34:53.781Z,97895.19
2018-07-09T17:37:21.362Z,97891.38
2018-07-09T17:39:48.925Z,97898.40
2018-07-09T17:42:16.462Z,97898.26
2018-07-09T17:44:44.047Z,97898.37
2018-07-09T17:47:11.596Z,97903.13
2018-07-09T17:49:39.186Z,97900.97
2018-07-09T17:52:06.751Z,97893.98
2018-07-09T17:54:34.267Z,97897.90
2018-07-09T17:57:01.902Z,97903.52
2018-07-09T17:59:29.470Z,97906.64
2018-07-09T18:01:57.014Z,97914.98
2018-07-09T18:04:24.542Z,97915.31
2018-07-09T18:06:52.128Z,97919.30
2018-07-09T18:09:19.898Z,97915.89
2018-07-09T18:11:47.433Z,97920.70
2018-07-09T18:14:15.034Z,97910.03
2018-07-09T18:16:42.618Z,97923.45
2018-07-09T18:19:10.187Z,97927.60
2018-07-09T18:21:37.787Z,97926.27
2018-07-09T18:24:05.483Z,97915.03
2018-07-09T18:26:33.042Z,97921.84
2018-07-09T18:29:00.608Z,97915.95
2018-07-09T18:31:28.211Z,97913.88
2018-07-09T18:33:56.659Z,97902.37
2018-07-09T18:36:24.304Z,97907.70
2018-07-09T18:38:51.875Z,97913.84
2018-07-09T18:41:19.434Z,97919.30
2018-07-09T18:43:47.014Z,97912.41
2018-07-09T18:46:14.634Z,97909.38
2018-07-09T18:48:42.254Z,97914.63
2018-07-09T18:51:09.815Z,97918.45
2018-07-09T18:53:37.386Z,97918.63
2018-07-09T18:56:05.002Z,97919.94
2018-07-09T18:58:32.789Z,97918.52
2018-07-09T19:01:00.249Z,97924.34
2018-07-09T19:03:27.799Z,97926.68
2018-07-09T19:06:35.556Z,97926.73
2018-07-09T19:09:03.414Z,97930.59
2018-07-09T19:11:31.054Z,97926.13
2018-07-09T19:13:58.767Z,97929.77
2018-07-09T19:16:26.461Z,97932.09
2018-07-09T19:20:01.043Z,97929.31
2018-07-09T19:22:29.168Z,97932.81
2018-07-09T19:24:55.526Z,97935.36
2018-07-09T19:27:21.890Z,97935.73
2018-07-09T19:29:48.242Z,97935.98
2018-07-09T19:32:14.585Z,97936.83
2018-07-09T19:34:40.988Z,97938.30
2018-07-09T19:37:07.491Z,97941.27
2018-07-09T19:39:33.704Z,97944.31
2018-07-09T19:42:00.064Z,97947.83
2018-07-09T19:44:26.402Z,97944.73
2018-07-09T19:46:52.741Z,97948.34
2018-07-09T19:49:19.117Z,97949.13
2018-07-09T19:51:45.463Z,97949.38
2018-07-09T19:54:11.794Z,97948.75
2018-07-09T19:56:38.153Z,97946.48
2018-07-09T19:59:04.489Z,97949.55
2018-07-09T20:01:30.836Z,97947.59
2018-07-09T20:03:57.215Z,97943.27
2018-07-09T20:06:23.543Z,97936.45
2018-07-09T20:08:55.495Z,97937.88
2018-07-09T20:11:27.310Z,97945.81
2018-07-09T20:14:08.186Z,97944.75
2018-07-09T20:16:39.948Z,97938.25
2018-07-09T20:19:06.903Z,97949.00
2018-07-09T20:21:33.234Z,97945.00
2018-07-09T20:23:59.778Z,97947.28
2018-07-09T20:26:26.118Z,97942.07
2018-07-09T20:28:52.538Z,97941.54
2018-07-09T20:31:19.474Z,97929.73
2018-07-09T20:33:46.096Z,97936.66
2018-07-09T20:36:12.637Z,97926.05
2018-07-09T20:38:39.001Z,97924.09
2018-07-09T20:41:05.377Z,97925.59
2018-07-09T20:43:31.738Z,97927.11
2018-07-09T20:45:58.112Z,97926.34
2018-07-09T20:48:24.470Z,97929.80
2018-07-09T20:50:50.793Z,97923.52
2018-07-09T20:53:17.162Z,97929.25
2018-07-09T20:55:43.510Z,97929.47
2018-07-09T20:58:09.833Z,97925.58
2018-07-09T21:00:36.207Z,97926.11
2018-07-09T21:03:02.546Z,97928.47
2018-07-09T21:05:28.882Z,97930.09
2018-07-09T21:07:55.267Z,97919.70
2018-07-09T21:10:21.686Z,97932.27
2018-07-09T21:12:53.611Z,97923.28
2018-07-09T21:15:20.171Z,97927.72
2018-07-09T21:17:46.671Z,97925.54
2018-07-09T21:20:13.091Z,97919.03
2018-07-09T21:22:39.450Z,97915.91
2018-07-09T21:25:05.770Z,97921.95
2018-07-09T21:27:32.092Z,97916.08
2018-07-09T21:29:58.530Z,97922.45
2018-07-09T21:32:24.871Z,97922.75
2018-07-09T21:34:51.197Z,97930.31
2018-07-09T21:37:17.580Z,97929.35
2018-07-09T21:39:43.926Z,97928.91
2018-07-09T21:42:10.463Z,97934.42
2018-07-09T21:44:36.855Z,97930.64
2018-07-09T21:47:03.182Z,97926.63
2018-07-09T21:49:29.583Z,97931.03
2018-07-09T21:51:55.954Z,97931.70
2018-07-09T21:54:22.287Z,97931.59
2018-07-09T21:56:48.625Z,97922.50
2018-07-09T21:59:15.007Z,97929.21
2018-07-09T22:01:41.368Z,97931.70
2018-07-09T22:04:07.698Z,97924.48
2018-07-09T22:06:34.090Z,97927.95
2018-07-09T22:09:00.437Z,97928.37
2018-07-09T22:11:26.768Z,97925.56
2018-07-09T22:13:53.143Z,97926.09
2018-07-09T22:16:19.518Z,97925.77
2018-07-09T22:18:45.858Z,97930.20
2018-07-09T22:21:12.281Z,97931.02
2018-07-09T22:23:38.606Z,97933.94
2018-07-09T22:26:04.950Z,97930.48
2018-07-09T22:28:31.319Z,97927.55
2018-07-09T22:30:58.962Z,97924.73
2018-07-09T22:33:26.470Z,97921.52
2018-07-09T22:35:54.055Z,97922.47
2018-07-09T22:38:21.611Z,97918.05
2018-07-09T22:40:49.166Z,97924.21
2018-07-09T22:43:27.902Z,97924.73
2018-07-09T22:45:55.456Z,97919.53
2018-07-09T22:48:23.007Z,97911.61
2018-07-09T22:50:50.590Z,97913.44
2018-07-09T22:53:18.181Z,97913.31
2018-07-09T22:55:57.081Z,97917.54
2018-07-09T22:58:24.614Z,97919.39
2018-07-09T23:00:52.170Z,97922.84
2018-07-09T23:03:19.800Z,97926.42
2018-07-09T23:05:47.349Z,97921.44
2018-07-09T23:08:14.873Z,97921.55
2018-07-09T23:12:26.728Z,97924.58
2018-07-09T23:17:09.658Z,97919.48
2018-07-09T23:21:56.386Z,97919.43
2018-07-09T23:24:23.087Z,97912.45
2018-07-09T23:26:49.478Z,97914.63
2018-07-09T23:29:16.088Z,97913.13
2018-07-09T23:31:42.420Z,97918.98
2018-07-09T23:34:08.770Z,97917.91
2018-07-09T23:36:35.212Z,97916.73
2018-07-09T23:39:01.599Z,97916.84
2018-07-09T23:41:27.922Z,97918.14
2018-07-09T23:43:54.294Z,97909.59
2018-07-09T23:46:20.640Z,97909.70
2018-07-09T23:48:46.974Z,97902.78
2018-07-09T23:51:13.343Z,97899.09
2018-07-09T23:53:39.678Z,97891.19
2018-07-09T23:57:17.885Z,97893.47
2018-07-09T23:59:56.624Z,97891.74
